Time;durP1;ratioP1;P1;durP2;ratioP2;P2;SDS_P1;SDS_P2;PMS_P1;PMS_P2;Temp;Humidity;BMP_temperature;BMP_pressure;BME280_temperature;BME280_humidity;BME280_pressure;Samples;Min_cycle;Max_cycle;Signal;HPM_P1;HPM_P2
2021/12/18 00:01:58;;;;;;;86.47;15.93;;;;;;;8.11;100.00;99915.66;5097155;28;20609;-62
2021/12/18 00:04:25;;;;;;;75.07;14.17;;;;;;;8.11;100.00;99913.00;5097074;28;20605;-62
2021/12/18 00:06:52;;;;;;;93.10;15.70;;;;;;;8.10;100.00;99916.69;5097114;28;20604;-62
2021/12/18 00:09:19;;;;;;;71.37;13.03;;;;;;;8.16;100.00;99918.56;5093952;28;21425;-62
2021/12/18 00:11:46;;;;;;;99.70;21.03;;;;;;;8.14;100.00;99912.59;5093094;28;20640;-62
2021/12/18 00:14:12;;;;;;;79.80;16.27;;;;;;;8.12;100.00;99909.31;5093826;28;20621;-62
2021/12/18 00:16:40;;;;;;;115.43;16.33;;;;;;;8.08;100.00;99910.72;5096755;28;20641;-62
2021/12/18 00:19:07;;;;;;;113.20;17.20;;;;;;;8.04;100.00;99917.47;5087446;28;20601;-63
2021/12/18 00:21:36;;;;;;;78.03;14.53;;;;;;;7.91;100.00;99920.06;5083260;28;20617;-62
2021/12/18 00:24:04;;;;;;;76.60;13.13;;;;;;;7.96;100.00;99910.47;5082788;28;20628;-62
2021/12/18 00:26:30;;;;;;;100.83;19.00;;;;;;;7.97;100.00;99921.94;5079684;28;20655;-62
2021/12/18 00:28:57;;;;;;;83.17;15.03;;;;;;;7.95;100.00;99913.34;5079671;28;20681;-62
2021/12/18 00:31:24;;;;;;;84.23;13.53;;;;;;;7.95;100.00;99906.16;5082587;28;20670;-61
2021/12/18 00:33:52;;;;;;;119.00;16.67;;;;;;;8.01;100.00;99928.53;5083063;28;20594;-62
2021/12/18 00:36:18;;;;;;;72.67;17.03;;;;;;;7.96;100.00;99920.28;5080292;28;20626;-62
2021/12/18 00:38:45;;;;;;;128.63;16.37;;;;;;;7.81;100.00;99920.41;5079390;28;21165;-62
2021/12/18 00:41:28;;;;;;;93.90;13.67;;;;;;;7.96;100.00;99930.94;5081175;28;20606;-62
2021/12/18 00:44:04;;;;;;;87.13;14.93;;;;;;;7.94;100.00;99922.34;5082908;28;20849;-62
2021/12/18 00:46:34;;;;;;;80.17;14.40;;;;;;;7.99;100.00;99930.53;5079339;28;21235;-61
2021/12/18 00:49:03;;;;;;;75.37;14.10;;;;;;;8.00;100.00;99932.19;5079233;28;20614;-62
2021/12/18 00:51:29;;;;;;;73.70;10.87;;;;;;;8.02;100.00;99936.28;5075034;28;20581;-63
2021/12/18 00:53:56;;;;;;;57.77;12.20;;;;;;;7.86;100.00;99933.16;5082561;28;20633;-62
2021/12/18 00:56:23;;;;;;;130.60;15.03;;;;;;;7.92;100.00;99930.50;5079155;28;20645;-61
2021/12/18 00:58:50;;;;;;;67.40;12.47;;;;;;;7.84;100.00;99928.00;5079139;28;20614;-62
2021/12/18 01:01:18;;;;;;;61.53;12.60;;;;;;;7.80;100.00;99926.75;5081382;28;20637;-60
2021/12/18 01:03:46;;;;;;;107.53;15.00;;;;;;;7.88;100.00;99928.44;5082340;28;20629;-63
2021/12/18 01:06:15;;;;;;;103.33;14.77;;;;;;;8.02;100.00;99922.16;5080346;28;20694;-61
2021/12/18 01:08:41;;;;;;;77.83;14.63;;;;;;;7.98;100.00;99923.59;5078892;28;20607;-62
2021/12/18 01:11:29;;;;;;;92.83;15.03;;;;;;;8.00;100.00;99919.72;5080003;28;20594;-63
2021/12/18 01:14:10;;;;;;;73.37;14.03;;;;;;;8.01;100.00;99917.88;5082302;28;20597;-62
2021/12/18 01:16:46;;;;;;;84.60;14.47;;;;;;;8.01;100.00;99917.88;5078955;28;20606;-62
2021/12/18 01:24:42;;;;;;;54.27;11.77;;;;;;;7.93;100.00;99900.22;5078796;28;20602;-61
2021/12/18 01:27:09;;;;;;;58.33;13.47;;;;;;;7.83;100.00;99907.72;5080009;28;20629;-61
2021/12/18 01:29:35;;;;;;;50.67;12.10;;;;;;;7.87;100.00;99908.16;5081194;28;20608;-62
2021/12/18 01:32:02;;;;;;;68.33;12.60;;;;;;;7.88;100.00;99917.81;5081701;28;20624;-62
2021/12/18 01:34:29;;;;;;;80.53;15.77;;;;;;;7.98;100.00;99923.59;5078582;28;20582;-62
2021/12/18 01:36:56;;;;;;;70.43;12.80;;;;;;;7.96;100.00;99917.63;5078619;28;20611;-61
2021/12/18 01:39:23;;;;;;;66.63;12.60;;;;;;;7.97;100.00;99921.94;5081645;28;20619;-61
2021/12/18 01:42:07;;;;;;;48.33;10.70;;;;;;;7.94;100.00;99925.81;5082062;28;20639;-62
2021/12/18 01:45:04;;;;;;;76.13;14.80;;;;;;;8.00;100.00;99929.53;5078289;28;20731;-61
2021/12/18 01:52:59;;;;;;;112.60;15.57;;;;;;;7.69;100.00;99929.97;5078246;28;20595;-61
2021/12/18 01:55:31;;;;;;;82.03;15.43;;;;;;;7.77;100.00;99921.03;5078157;28;20852;-62
2021/12/18 01:57:58;;;;;;;74.67;12.20;;;;;;;7.84;100.00;99927.19;5078181;28;21184;-62
2021/12/18 02:00:28;;;;;;;51.53;12.93;;;;;;;7.87;100.00;99913.50;5078135;28;20623;-62
2021/12/18 02:02:55;;;;;;;79.50;12.03;;;;;;;7.84;100.00;99912.03;5078006;28;20706;-61
2021/12/18 02:05:22;;;;;;;89.17;14.40;;;;;;;7.81;100.00;99903.63;5080752;28;20601;-62
2021/12/18 02:07:49;;;;;;;104.07;15.60;;;;;;;7.82;100.00;99903.44;5081495;28;20649;-61
2021/12/18 02:10:19;;;;;;;82.20;14.27;;;;;;;7.83;100.00;99907.72;5079090;28;20609;-62
2021/12/18 02:12:56;;;;;;;64.53;12.73;;;;;;;7.87;100.00;99903.69;5077751;28;20603;-62
2021/12/18 02:20:55;;;;;;;85.27;13.93;;;;;;;7.85;100.00;99896.91;5086400;28;20590;-62
2021/12/18 02:23:22;;;;;;;72.57;13.23;;;;;;;7.87;100.00;99897.53;5079522;28;20643;-61
2021/12/18 02:25:49;;;;;;;59.17;11.13;;;;;;;7.87;100.00;99897.53;5081132;28;20626;-61
2021/12/18 02:28:20;;;;;;;74.63;14.07;;;;;;;7.88;100.00;99896.53;5078696;28;20728;-61
2021/12/18 02:30:49;;;;;;;63.30;12.00;;;;;;;7.86;100.00;99891.38;5077605;28;20626;-62
2021/12/18 02:33:16;;;;;;;79.03;12.37;;;;;;;7.87;100.00;99886.88;5079547;28;20633;-61
2021/12/18 02:35:47;;;;;;;52.83;14.77;;;;;;;7.80;100.00;99881.53;5081091;28;20639;-61
2021/12/18 02:38:20;;;;;;;59.50;12.90;;;;;;;7.84;100.00;99889.94;5078748;28;20624;-61
2021/12/18 02:41:09;;;;;;;45.57;11.10;;;;;;;7.85;100.00;99886.28;5077259;28;21243;-61
2021/12/18 02:43:39;;;;;;;70.23;12.97;;;;;;;7.83;100.00;99885.66;5077194;28;20698;-61
2021/12/18 02:46:08;;;;;;;83.23;13.00;;;;;;;7.85;100.00;99886.28;5078049;28;20606;-62
2021/12/18 02:48:35;;;;;;;59.73;11.53;;;;;;;7.87;100.00;99878.91;5079217;28;20633;-62
2021/12/18 02:51:04;;;;;;;60.77;12.03;;;;;;;7.89;100.00;99888.31;5069326;28;20594;-61
2021/12/18 02:53:33;;;;;;;56.07;10.30;;;;;;;7.88;100.00;99880.56;5080703;28;20605;-61
2021/12/18 02:56:03;;;;;;;58.77;11.23;;;;;;;7.88;100.00;99884.03;5080878;28;20605;-61
2021/12/18 02:58:30;;;;;;;53.57;11.13;;;;;;;7.70;100.00;99883.75;5077270;28;20602;-61
2021/12/18 03:00:58;;;;;;;81.17;13.63;;;;;;;7.39;100.00;99886.84;5076170;28;20606;-60
2021/12/18 03:03:29;;;;;;;75.13;12.10;;;;;;;7.44;100.00;99887.06;5080354;28;20614;-62
2021/12/18 03:06:08;;;;;;;59.90;12.10;;;;;;;7.25;100.00;99890.41;5080535;28;20620;-62
2021/12/18 03:08:45;;;;;;;85.03;13.77;;;;;;;6.93;100.00;99889.09;5068657;28;20654;-62
2021/12/18 03:34:54;;;;;;;71.43;13.20;;;;;;;7.58;100.00;99874.69;5104228;27;20822;-59
2021/12/18 03:37:21;;;;;;;118.70;15.50;;;;;;;7.65;100.00;99875.53;5099545;28;20602;-59
2021/12/18 03:39:49;;;;;;;124.67;15.77;;;;;;;7.72;100.00;99864.91;5099827;28;20643;-60
2021/12/18 03:42:16;;;;;;;68.20;12.10;;;;;;;7.74;100.00;99870.84;5101960;28;20643;-59
2021/12/18 03:44:43;;;;;;;69.57;12.13;;;;;;;7.78;100.00;99875.59;5103090;28;20619;-59
2021/12/18 03:47:10;;;;;;;81.20;13.37;;;;;;;7.89;100.00;99867.03;5101537;28;21362;-59
2021/12/18 03:49:37;;;;;;;115.53;13.67;;;;;;;7.80;100.00;99878.06;5109487;28;20596;-59
2021/12/18 03:52:05;;;;;;;81.80;13.03;;;;;;;7.72;100.00;99870.25;5102359;28;20588;-59
2021/12/18 03:54:32;;;;;;;83.13;13.20;;;;;;;7.35;100.00;99876.78;5099380;28;20606;-59
2021/12/18 03:56:58;;;;;;;87.40;12.93;;;;;;;7.29;100.00;99875.72;5099442;28;20591;-59
2021/12/18 03:59:25;;;;;;;62.80;10.53;;;;;;;7.43;100.00;99880.09;5099231;28;20648;-59
2021/12/18 04:01:52;;;;;;;79.50;12.97;;;;;;;7.55;100.00;99875.88;5099301;28;20618;-59
2021/12/18 04:04:19;;;;;;;72.37;13.83;;;;;;;7.61;100.00;99875.09;5101698;28;20606;-59
2021/12/18 04:06:45;;;;;;;110.83;13.80;;;;;;;7.56;100.00;99880.19;5102753;28;20585;-59
2021/12/18 04:09:14;;;;;;;58.47;11.40;;;;;;;7.62;100.00;99870.59;5100108;28;20600;-60
2021/12/18 04:11:41;;;;;;;77.63;12.03;;;;;;;7.68;100.00;99874.28;5099074;28;20606;-60
2021/12/18 04:14:10;;;;;;;95.47;13.00;;;;;;;7.67;100.00;99878.00;5100240;28;20632;-59
2021/12/18 04:16:37;;;;;;;70.80;12.20;;;;;;;7.68;100.00;99880.44;5102416;28;20605;-60
2021/12/18 04:19:04;;;;;;;76.93;12.90;;;;;;;7.60;100.00;99878.78;5107386;28;20596;-59
2021/12/18 04:21:32;;;;;;;75.37;12.53;;;;;;;7.63;100.00;99874.06;5102325;28;20608;-59
2021/12/18 04:23:59;;;;;;;64.27;11.87;;;;;;;7.62;100.00;99878.56;5102511;28;20605;-60
2021/12/18 04:26:27;;;;;;;83.20;12.73;;;;;;;7.64;100.00;99881.06;5090293;28;20601;-59
2021/12/18 04:28:54;;;;;;;85.03;13.77;;;;;;;7.65;100.00;99880.00;5090452;28;20628;-59
2021/12/18 04:31:20;;;;;;;80.10;13.73;;;;;;;7.67;100.00;99883.31;5090199;28;20598;-59
2021/12/18 04:33:47;;;;;;;101.13;14.77;;;;;;;7.70;100.00;99880.25;5090016;28;20660;-60
2021/12/18 04:36:13;;;;;;;75.77;11.33;;;;;;;7.70;100.00;99888.25;5090025;28;20631;-59
2021/12/18 04:38:40;;;;;;;91.40;12.80;;;;;;;7.09;100.00;99890.66;5103192;28;20659;-59
2021/12/18 04:41:09;;;;;;;82.73;13.43;;;;;;;7.09;100.00;99888.00;5100911;28;20593;-59
2021/12/18 04:43:37;;;;;;;112.47;14.00;;;;;;;7.23;100.00;99892.44;5098335;28;20610;-59
2021/12/18 04:46:05;;;;;;;107.47;14.23;;;;;;;7.37;100.00;99886.19;5086135;28;20637;-60
2021/12/18 04:48:31;;;;;;;88.63;13.33;;;;;;;7.45;100.00;99895.84;5089149;28;20602;-60
2021/12/18 04:50:58;;;;;;;105.23;12.60;;;;;;;7.51;100.00;99879.97;5092406;28;20606;-60
2021/12/18 04:53:25;;;;;;;58.57;10.13;;;;;;;7.42;100.00;99882.97;5088109;28;20605;-60
2021/12/18 04:55:51;;;;;;;85.30;12.10;;;;;;;7.43;100.00;99888.06;5088365;28;20601;-59
2021/12/18 04:58:18;;;;;;;87.87;13.30;;;;;;;7.51;100.00;99885.28;5085733;28;20632;-59
2021/12/18 05:00:47;;;;;;;91.53;12.17;;;;;;;7.61;100.00;99884.94;5084562;28;20594;-59
2021/12/18 05:03:16;;;;;;;101.30;14.63;;;;;;;7.54;100.00;99887.53;5086641;28;20606;-60
2021/12/18 05:05:43;;;;;;;74.17;12.27;;;;;;;7.57;100.00;99895.13;5088343;28;20605;-59
2021/12/18 05:08:11;;;;;;;100.27;13.43;;;;;;;7.48;100.00;99904.28;5086758;28;20617;-60
2021/12/18 05:10:38;;;;;;;67.47;12.50;;;;;;;7.52;100.00;99902.84;5084497;28;20633;-59
2021/12/18 05:13:05;;;;;;;93.40;12.40;;;;;;;7.50;100.00;99906.72;5085157;28;20598;-59
2021/12/18 05:15:32;;;;;;;114.50;14.93;;;;;;;7.35;100.00;99903.34;5087752;28;20639;-59
2021/12/18 05:18:00;;;;;;;109.07;14.60;;;;;;;7.37;100.00;99904.78;5087939;28;20600;-59
2021/12/18 05:20:27;;;;;;;97.13;13.00;;;;;;;7.33;100.00;99897.41;5094201;28;20607;-59
2021/12/18 05:22:53;;;;;;;76.60;11.40;;;;;;;7.34;100.00;99897.22;5084379;28;20598;-59
2021/12/18 05:25:20;;;;;;;90.33;13.63;;;;;;;6.96;100.00;99901.22;5086963;28;21618;-59
2021/12/18 05:27:47;;;;;;;98.20;13.90;;;;;;;7.13;100.00;99902.56;5087754;28;20620;-59
2021/12/18 05:30:13;;;;;;;97.63;13.20;;;;;;;7.28;100.00;99895.31;5085855;28;20589;-59
2021/12/18 05:32:40;;;;;;;98.40;13.80;;;;;;;7.36;100.00;99910.31;5084091;28;20611;-59
2021/12/18 05:35:09;;;;;;;100.53;12.67;;;;;;;7.42;100.00;99905.06;5085013;28;20658;-59
2021/12/18 05:37:47;;;;;;;92.70;13.70;;;;;;;7.44;100.00;99907.50;5087543;28;20605;-59
2021/12/18 05:40:16;;;;;;;95.00;14.07;;;;;;;7.32;100.00;99907.22;5085528;28;20625;-59
2021/12/18 05:42:43;;;;;;;132.50;16.30;;;;;;;7.32;100.00;99901.91;5084060;28;20607;-59
2021/12/18 05:45:10;;;;;;;116.43;15.87;;;;;;;7.30;100.00;99903.94;5085174;28;20598;-60
2021/12/18 05:47:37;;;;;;;85.00;14.07;;;;;;;7.38;100.00;99903.78;5087196;28;20613;-59
2021/12/18 05:50:06;;;;;;;80.80;12.93;;;;;;;7.41;100.00;99899.91;5095393;28;20610;-59
2021/12/18 05:52:34;;;;;;;76.67;13.27;;;;;;;7.41;100.00;99908.72;5083768;28;20629;-59
2021/12/18 05:55:00;;;;;;;82.37;13.90;;;;;;;7.43;100.00;99898.69;5083602;28;20591;-59
2021/12/18 05:57:27;;;;;;;78.20;14.13;;;;;;;7.45;100.00;99899.34;5086029;28;20605;-59
2021/12/18 05:59:54;;;;;;;93.63;14.97;;;;;;;7.46;100.00;99902.81;5087081;28;20613;-59
2021/12/18 06:02:20;;;;;;;93.60;14.10;;;;;;;7.50;100.00;99907.53;5084154;28;21522;-60
2021/12/18 06:04:47;;;;;;;83.57;14.80;;;;;;;7.46;100.00;99898.31;5083599;28;20611;-60
2021/12/18 06:07:27;;;;;;;104.23;15.07;;;;;;;7.46;100.00;99903.63;5085168;28;20610;-59
2021/12/18 06:09:56;;;;;;;107.20;14.80;;;;;;;7.46;100.00;99902.81;5086826;28;21124;-59
2021/12/18 06:12:23;;;;;;;52.33;13.40;;;;;;;7.46;100.00;99898.31;5083583;28;20618;-59
2021/12/18 06:14:49;;;;;;;81.43;13.33;;;;;;;7.48;100.00;99898.13;5083534;28;20607;-59
2021/12/18 06:17:16;;;;;;;125.90;17.50;;;;;;;7.56;100.00;99890.81;5085429;28;20970;-59
2021/12/18 06:19:43;;;;;;;77.37;13.27;;;;;;;7.54;100.00;99906.16;5096646;28;20617;-59
2021/12/18 06:22:10;;;;;;;96.47;14.43;;;;;;;7.49;100.00;99902.41;5085274;28;20632;-59
2021/12/18 06:24:36;;;;;;;101.43;15.97;;;;;;;7.47;100.00;99897.31;5082105;28;20613;-59
2021/12/18 06:27:05;;;;;;;106.10;16.93;;;;;;;7.48;100.00;99885.66;5083307;28;21176;-60
2021/12/18 06:29:33;;;;;;;85.80;14.27;;;;;;;7.48;100.00;99884.84;5086419;28;20614;-60
2021/12/18 06:32:00;;;;;;;86.20;14.20;;;;;;;7.45;100.00;99902.00;5086370;28;20606;-60
2021/12/18 06:34:27;;;;;;;100.23;15.73;;;;;;;7.35;100.00;99906.84;5082660;28;20664;-59
2021/12/18 06:36:53;;;;;;;81.33;13.00;;;;;;;7.35;100.00;99906.84;5083138;28;20606;-60
2021/12/18 06:39:20;;;;;;;107.17;16.40;;;;;;;7.35;100.00;99892.72;5085411;28;20610;-59
2021/12/18 06:41:48;;;;;;;98.93;15.57;;;;;;;7.38;100.00;99895.00;5086175;28;20612;-59
2021/12/18 06:44:16;;;;;;;123.57;19.83;;;;;;;7.52;100.00;99910.03;5084034;28;20602;-59
2021/12/18 06:46:43;;;;;;;70.93;13.77;;;;;;;7.48;100.00;99912.25;5082628;28;20598;-59
2021/12/18 06:49:10;;;;;;;93.47;16.60;;;;;;;7.18;100.00;99897.47;5093638;28;20605;-60
2021/12/18 06:51:37;;;;;;;94.97;15.73;;;;;;;7.14;100.00;99908.72;5085981;28;20609;-59
2021/12/18 06:54:04;;;;;;;84.33;14.50;;;;;;;7.17;100.00;99906.50;5085578;28;20598;-59
2021/12/18 06:56:30;;;;;;;100.80;15.03;;;;;;;6.94;100.00;99908.53;5082416;28;20605;-59
2021/12/18 06:58:57;;;;;;;88.93;13.80;;;;;;;6.92;100.00;99915.88;5082533;28;20606;-59
2021/12/18 07:01:25;;;;;;;96.73;15.83;;;;;;;7.05;100.00;99910.69;5085515;28;20582;-60
2021/12/18 07:03:52;;;;;;;77.33;14.60;;;;;;;7.12;100.00;99910.75;5085915;28;20612;-59
2021/12/18 07:06:18;;;;;;;104.93;15.70;;;;;;;7.09;100.00;99909.28;5083318;28;20708;-59
2021/12/18 07:08:45;;;;;;;88.00;14.03;;;;;;;7.12;100.00;99903.56;5082106;28;20624;-59
2021/12/18 07:11:11;;;;;;;81.00;15.57;;;;;;;7.12;100.00;99906.22;5083811;28;20594;-59
2021/12/18 07:13:38;;;;;;;78.70;15.30;;;;;;;7.30;100.00;99908.44;5085789;28;20624;-60
2021/12/18 07:16:05;;;;;;;101.03;15.07;;;;;;;7.24;100.00;99904.69;5085085;28;20597;-60
2021/12/18 07:18:33;;;;;;;71.57;14.43;;;;;;;7.28;100.00;99911.28;5083098;28;20620;-59
2021/12/18 07:21:00;;;;;;;68.03;13.57;;;;;;;7.31;100.00;99910.88;5085873;28;20599;-59
2021/12/18 07:23:27;;;;;;;95.97;15.83;;;;;;;7.35;100.00;99913.97;5082335;28;20613;-59
2021/12/18 07:25:53;;;;;;;84.27;14.10;;;;;;;7.48;100.00;99916.75;5082228;28;20598;-59
2021/12/18 07:28:20;;;;;;;129.07;15.70;;;;;;;7.41;100.00;99916.69;5084815;28;20621;-59
2021/12/18 07:30:47;;;;;;;100.20;15.03;;;;;;;7.14;100.00;99925.47;5085665;28;20610;-60
2021/12/18 07:33:13;;;;;;;86.00;14.20;;;;;;;6.74;100.00;99923.47;5083581;28;20617;-59
2021/12/18 07:35:42;;;;;;;102.80;15.33;;;;;;;6.39;100.00;99922.47;5082159;28;20591;-59
2021/12/18 07:38:09;;;;;;;113.70;16.07;;;;;;;6.28;100.00;99918.47;5083222;28;20625;-59
2021/12/18 07:40:36;;;;;;;103.13;14.77;;;;;;;6.34;100.00;99922.22;5085550;28;20615;-59
2021/12/18 07:43:04;;;;;;;116.40;15.37;;;;;;;6.37;100.00;99922.69;5085450;28;20602;-59
2021/12/18 07:45:33;;;;;;;85.00;13.33;;;;;;;6.43;100.00;99929.06;5082043;28;20621;-59
2021/12/18 07:48:00;;;;;;;99.57;14.40;;;;;;;6.62;100.00;99917.03;5082177;28;20614;-59
2021/12/18 07:50:26;;;;;;;80.43;14.20;;;;;;;6.54;100.00;99912.63;5091951;28;20605;-59
2021/12/18 07:52:54;;;;;;;85.93;15.00;;;;;;;6.46;100.00;99916.25;5082193;28;20595;-59
2021/12/18 07:55:22;;;;;;;101.67;16.00;;;;;;;6.69;100.00;99925.84;5084815;28;20681;-59
2021/12/18 07:57:50;;;;;;;84.10;15.90;;;;;;;6.72;100.00;99914.84;5085759;28;20658;-59
2021/12/18 08:00:17;;;;;;;101.97;16.57;;;;;;;6.80;100.00;99914.75;5083203;28;20616;-59
2021/12/18 08:02:44;;;;;;;138.60;17.50;;;;;;;6.55;100.00;99924.09;5081969;28;20602;-59
2021/12/18 08:05:11;;;;;;;62.80;14.17;;;;;;;6.17;100.00;99923.44;5083207;28;20599;-59
2021/12/18 08:07:37;;;;;;;78.03;14.40;;;;;;;6.11;100.00;99932.97;5085471;28;20585;-59
2021/12/18 08:10:07;;;;;;;57.67;13.97;;;;;;;5.94;100.00;99923.56;5084847;28;20590;-59
2021/12/18 08:12:34;;;;;;;89.70;15.40;;;;;;;5.86;100.00;99924.47;5081861;28;20594;-59
2021/12/18 08:15:01;;;;;;;80.43;16.60;;;;;;;5.96;100.00;99924.19;5082017;28;20605;-59
2021/12/18 08:17:28;;;;;;;79.33;15.93;;;;;;;5.86;100.00;99926.28;5081707;28;20606;-59
2021/12/18 08:19:54;;;;;;;105.80;15.10;;;;;;;5.89;100.00;99933.88;5095022;28;20601;-59
2021/12/18 08:22:21;;;;;;;97.03;16.23;;;;;;;5.85;100.00;99940.53;5086182;28;20606;-59
2021/12/18 08:24:47;;;;;;;83.90;15.80;;;;;;;5.73;100.00;99939.34;5085616;28;20598;-59
2021/12/18 08:27:15;;;;;;;74.07;15.70;;;;;;;5.83;100.00;99934.59;5087371;28;20629;-59
2021/12/18 08:29:42;;;;;;;93.67;14.67;;;;;;;5.94;100.00;99937.63;5089014;28;20586;-59
2021/12/18 08:32:09;;;;;;;78.60;16.93;;;;;;;6.11;100.00;99937.44;5087685;28;20613;-59
2021/12/18 08:34:36;;;;;;;77.53;15.47;;;;;;;5.88;100.00;99943.66;5085062;28;20641;-59
2021/12/18 08:37:03;;;;;;;88.53;16.10;;;;;;;5.72;100.00;99932.41;5085607;28;20610;-59
2021/12/18 08:39:29;;;;;;;67.97;14.90;;;;;;;5.49;100.00;99936.94;5088704;28;20605;-60
2021/12/18 08:42:03;;;;;;;59.00;15.07;;;;;;;5.40;100.00;99939.69;5088742;28;20620;-59
2021/12/18 08:44:31;;;;;;;117.20;18.50;;;;;;;5.77;100.00;99936.16;5085030;28;21097;-59
2021/12/18 08:46:57;;;;;;;76.70;15.00;;;;;;;6.29;100.00;99928.06;5085283;28;20598;-60
2021/12/18 08:49:25;;;;;;;84.33;15.93;;;;;;;6.20;100.00;99938.97;5098163;28;20609;-59
2021/12/18 08:51:51;;;;;;;86.33;16.33;;;;;;;6.09;100.00;99934.16;5088572;28;20644;-59
2021/12/18 08:54:18;;;;;;;104.93;16.47;;;;;;;6.10;100.00;99933.97;5085751;28;20625;-59
2021/12/18 08:56:44;;;;;;;88.17;17.10;;;;;;;5.92;100.00;99934.34;5084942;28;21022;-59
2021/12/18 08:59:11;;;;;;;119.20;17.27;;;;;;;5.78;100.00;99927.19;5086220;28;20606;-59
2021/12/18 09:01:39;;;;;;;77.80;17.03;;;;;;;6.14;100.00;99926.47;5088360;28;20602;-59
2021/12/18 09:04:06;;;;;;;91.97;15.07;;;;;;;6.12;100.00;99934.63;5087668;28;20968;-60
2021/12/18 09:06:33;;;;;;;84.53;16.80;;;;;;;6.03;100.00;99933.06;5084535;28;20613;-59
2021/12/18 09:08:59;;;;;;;93.77;15.77;;;;;;;6.17;100.00;99942.00;5084900;28;20625;-59
2021/12/18 09:11:26;;;;;;;80.90;14.23;;;;;;;6.11;100.00;99935.63;5083536;28;20605;-59
2021/12/18 09:13:53;;;;;;;91.20;16.20;;;;;;;5.59;100.00;99934.84;5084772;28;20621;-59
2021/12/18 09:16:20;;;;;;;101.83;17.87;;;;;;;5.83;100.00;99934.59;5087144;28;20586;-59
2021/12/18 09:18:48;;;;;;;85.10;18.07;;;;;;;5.88;100.00;99930.41;5090880;28;20623;-60
2021/12/18 09:21:14;;;;;;;68.67;16.57;;;;;;;6.26;100.00;99939.06;5089518;28;20599;-59
2021/12/18 09:23:41;;;;;;;93.70;16.10;;;;;;;6.53;100.00;99933.03;5087972;28;20621;-59
2021/12/18 09:26:08;;;;;;;83.33;16.73;;;;;;;6.80;100.00;99933.34;5086979;28;20628;-59
2021/12/18 09:28:34;;;;;;;55.00;15.80;;;;;;;6.93;100.00;99933.47;5084397;28;20606;-59
2021/12/18 09:31:01;;;;;;;107.20;17.73;;;;;;;6.94;100.00;99937.75;5084180;28;20628;-59
2021/12/18 09:33:27;;;;;;;135.60;17.90;;;;;;;6.65;100.00;99935.22;5087194;28;20652;-59
2021/12/18 09:35:55;;;;;;;85.93;16.97;;;;;;;6.35;100.00;99935.28;5087735;28;20597;-59
2021/12/18 09:38:22;;;;;;;96.67;16.57;;;;;;;6.17;100.00;99926.09;5084617;28;20670;-59
2021/12/18 09:40:49;;;;;;;88.00;15.40;;;;;;;5.91;100.00;99934.53;5084082;28;20598;-59
2021/12/18 09:43:16;;;;;;;91.67;17.50;;;;;;;6.21;100.00;99933.50;5086169;28;20638;-59
2021/12/18 09:45:45;;;;;;;115.37;18.07;;;;;;;5.91;100.00;99932.69;5087532;28;20652;-60
2021/12/18 09:48:12;;;;;;;109.67;18.77;;;;;;;6.23;100.00;99928.00;5085913;28;20647;-60
2021/12/18 09:50:41;;;;;;;126.80;17.43;;;;;;;6.30;100.00;99928.91;5093938;28;20602;-59
2021/12/18 09:53:10;;;;;;;54.53;15.23;;;;;;;6.49;100.00;99926.50;5084978;28;20604;-59
2021/12/18 09:55:37;;;;;;;116.93;18.87;;;;;;;6.39;100.00;99925.13;5087308;28;20624;-59
2021/12/18 09:58:04;;;;;;;97.23;18.00;;;;;;;6.34;100.00;99917.75;5086712;28;20620;-59
2021/12/18 10:00:30;;;;;;;78.47;14.80;;;;;;;6.10;100.00;99919.88;5083730;28;20609;-59
2021/12/18 10:02:57;;;;;;;53.07;12.97;;;;;;;6.27;100.00;99923.97;5083740;28;20610;-59
2021/12/18 10:05:27;;;;;;;126.27;20.37;;;;;;;6.35;100.00;99918.53;5086732;28;20590;-59
2021/12/18 10:08:14;;;;;;;108.53;17.37;;;;;;;6.58;100.00;99911.25;5086976;28;20593;-59
2021/12/18 10:11:01;;;;;;;77.73;16.60;;;;;;;6.72;100.00;99905.06;5083651;28;20613;-59
2021/12/18 10:13:28;;;;;;;55.03;16.40;;;;;;;6.64;100.00;99902.53;5083488;28;20633;-59
2021/12/18 10:16:09;;;;;;;111.67;18.90;;;;;;;6.57;100.00;99898.16;5083751;28;20598;-60
2021/12/18 10:18:36;;;;;;;78.73;14.97;;;;;;;6.47;100.00;99896.63;5084689;28;20591;-59
2021/12/18 10:21:09;;;;;;;91.53;15.37;;;;;;;6.48;100.00;99898.28;5086563;28;20598;-59
2021/12/18 10:23:37;;;;;;;72.43;15.80;;;;;;;6.37;100.00;99896.13;5086864;28;20631;-59
2021/12/18 10:26:04;;;;;;;77.80;16.87;;;;;;;6.40;100.00;99895.75;5086212;28;20651;-59
2021/12/18 10:28:44;;;;;;;43.10;14.20;;;;;;;6.37;100.00;99896.13;5083183;28;20636;-59
2021/12/18 10:31:11;;;;;;;71.57;15.13;;;;;;;6.26;100.00;99887.81;5084519;28;20613;-59
2021/12/18 10:33:37;;;;;;;86.83;15.73;;;;;;;6.19;100.00;99893.03;5086353;28;20613;-59
2021/12/18 10:36:05;;;;;;;133.63;19.03;;;;;;;6.17;100.00;99892.41;5085975;28;20615;-59
2021/12/18 10:38:39;;;;;;;79.93;15.07;;;;;;;6.13;100.00;99880.53;5082995;28;20594;-59
2021/12/18 10:41:21;;;;;;;93.23;17.10;;;;;;;5.95;100.00;99882.75;5083458;28;20610;-59
2021/12/18 10:43:55;;;;;;;68.90;16.23;;;;;;;5.92;100.00;99885.78;5085989;28;20605;-60
2021/12/18 10:46:21;;;;;;;95.57;17.63;;;;;;;5.90;100.00;99880.69;5083471;28;20606;-60
2021/12/18 10:48:56;;;;;;;93.00;17.70;;;;;;;5.89;100.00;99875.53;5089338;28;20626;-59
2021/12/18 10:51:23;;;;;;;103.43;17.67;;;;;;;5.92;100.00;99869.88;5086361;28;20597;-59
2021/12/18 10:53:52;;;;;;;84.63;17.33;;;;;;;6.21;100.00;99869.00;5086071;28;20633;-59
2021/12/18 10:56:32;;;;;;;103.80;17.80;;;;;;;6.06;100.00;99866.38;5083410;28;20649;-60
2021/12/18 10:58:59;;;;;;;81.23;14.73;;;;;;;6.25;100.00;99871.06;5082678;28;20595;-59
2021/12/18 11:01:25;;;;;;;68.20;15.80;;;;;;;6.44;100.00;99862.50;5085770;28;20589;-59
2021/12/18 11:03:52;;;;;;;110.43;15.80;;;;;;;6.31;100.00;99865.00;5085744;28;20610;-59
2021/12/18 11:06:21;;;;;;;75.73;16.23;;;;;;;6.00;100.00;99866.31;5083217;28;20610;-59
2021/12/18 11:09:05;;;;;;;83.97;15.80;;;;;;;6.03;100.00;99864.09;5082722;28;20594;-60
2021/12/18 11:14:25;;;;;;;66.57;16.33;;;;;;;6.09;100.00;99866.00;5074159;28;20686;-59
2021/12/18 11:16:54;;;;;;;68.13;13.77;;;;;;;5.91;100.00;99871.69;5074120;28;20603;-59
2021/12/18 11:19:22;;;;;;;65.13;15.30;;;;;;;6.10;100.00;99867.63;5081680;28;20624;-59
2021/12/18 11:21:51;;;;;;;121.20;17.40;;;;;;;6.41;100.00;99854.91;5085998;28;20654;-59
2021/12/18 11:24:21;;;;;;;121.90;18.53;;;;;;;6.50;100.00;99855.59;5083498;28;20627;-59
2021/12/18 11:26:56;;;;;;;84.40;16.00;;;;;;;6.38;100.00;99849.16;5082452;28;20586;-59
2021/12/18 11:29:28;;;;;;;50.63;15.40;;;;;;;6.48;100.00;99844.38;5085219;28;20601;-59
2021/12/18 11:31:55;;;;;;;75.77;15.80;;;;;;;6.53;100.00;99827.91;5085851;28;20613;-59
2021/12/18 11:34:21;;;;;;;64.03;13.67;;;;;;;6.62;100.00;99827.56;5082485;28;20657;-59
2021/12/18 11:36:51;;;;;;;79.53;16.40;;;;;;;6.55;100.00;99824.03;5082167;28;20606;-59
2021/12/18 11:39:21;;;;;;;116.77;18.80;;;;;;;6.51;100.00;99823.59;5084146;28;20607;-59
2021/12/18 11:41:50;;;;;;;73.10;14.93;;;;;;;6.91;100.00;99818.59;5085665;28;20616;-59
2021/12/18 11:44:32;;;;;;;110.30;18.80;;;;;;;6.72;100.00;99816.59;5083556;28;20606;-59
2021/12/18 11:47:00;;;;;;;137.83;18.97;;;;;;;6.74;100.00;99811.94;5082317;28;20597;-59
2021/12/18 11:49:43;;;;;;;124.00;18.80;;;;;;;6.54;100.00;99801.13;5086915;28;20602;-59
2021/12/18 11:52:09;;;;;;;86.53;17.80;;;;;;;6.65;100.00;99808.59;5084409;28;20605;-59
2021/12/18 11:54:44;;;;;;;98.13;17.20;;;;;;;6.83;100.00;99816.94;5082288;28;20585;-59
2021/12/18 11:57:12;;;;;;;128.07;18.30;;;;;;;6.73;100.00;99805.81;5086938;28;20606;-59
2021/12/18 11:59:40;;;;;;;97.33;16.37;;;;;;;6.83;100.00;99800.16;5089059;28;20601;-59
2021/12/18 12:02:07;;;;;;;80.53;14.57;;;;;;;6.91;100.00;99800.00;5088684;28;20597;-59
2021/12/18 12:05:00;;;;;;;50.20;11.13;;;;;;;6.88;100.00;99787.94;5085774;28;20602;-59